EHGR/GLZ METAR and TAF weather

Enter ICAO airport designator
Station Type Date Time Source
EHGR METAR 2018/01/19 22:55 UTC NOAA

EHGR 192255Z AUTO 20005KT 150V250 9999 -RA FEW013 FEW015CB SCT019 BKN030 01/01 Q1009 WHT


Station Type Date Time Source
EHGR Decoded METAR 2018/01/19 22:55 UTC NOAA

Gilze-Rijen, Netherlands (EHGR) 51-34N 004-56E 24M
Jan 19, 2018 - 05:55 PM EST / 2018.01.19 2255 UTC
Wind: from the SSW (200 degrees) at 6 MPH (5 KT) (direction variable):0
Visibility: greater than 7 mile(s):0
Sky conditions: mostly cloudy
Weather: light rain; Cumulonimbus clouds observed
Temperature: 33 F (1 C)
Windchill: 26 F (-3 C):1
Dew Point: 33 F (1 C)
Relative Humidity: 100%
Pressure (altimeter): 29.80 in. Hg (1009 hPa)
ob: EHGR 192255Z AUTO 20005KT 150V250 9999 -RA FEW013 FEW015CB SCT019 BKN030 01/01 Q1009 WHT
cycle: 23

Station Type Date Time Source
EHGR TAF 2018/01/19 10:54 UTC NOAA

TAF TAF EHGR 190933Z 1910/1922 23008KT 9999 FEW018 SCT040 PROB40
TEMPO 1912/1922 27015G25KT 4500 SHRAGS FEW010 SCT015CB BKN030 PROB30
TEMPO 1912/1922 3000 TSRAGSSN


Example: see airport list